<?xml version="1.0" encoding="UTF-8" standalone="no" ?>
<gpx version="1.1" creator="Visorando" xmlns:xsi="http://www.w3.org/2001/XMLSchema-instance" xmlns="http://www.topografix.com/GPX/1/1" xsi:schemaLocation="http://www.topografix.com/GPX/1/1 http://www.topografix.com/GPX/1/1/gpx.xsd">
<metadata>
  <name>Défens d'Eyguiéres - Lamanon les Grottes de Calés</name>
  <link href="https://www.visorando.com/randonnee-defens-d-eyguieres-lamanon-les-grottes-d/">
    <text>https://www.visorando.com/randonnee-defens-d-eyguieres-lamanon-les-grottes-d/</text>
  </link>
</metadata><wpt lat="43.696029" lon="5.036861">
  <ele>96</ele>
  <time>2025-04-29T13:11:31.000Z</time>
  <name>Fontaine des bormes</name>
  <type>GENERIC</type>
</wpt><wpt lat="43.699089" lon="5.038153">
  <ele>108</ele>
  <time>2025-04-29T13:23:12.000Z</time>
  <name>Fontaine de Gillouse</name>
  <type>GENERIC</type>
</wpt><wpt lat="43.699927" lon="5.056435">
  <ele>308</ele>
  <time>2025-04-29T14:42:26.000Z</time>
  <name>Pylone HT</name>
  <type>GENERIC</type>
</wpt><wpt lat="43.703619" lon="5.072314">
  <ele>220</ele>
  <time>2025-04-29T15:12:50.000Z</time>
  <name>Prendre GR à droite</name>
  <type>GENERIC</type>
</wpt><wpt lat="43.703076" lon="5.082142">
  <ele>169</ele>
  <time>2025-04-29T16:28:11.000Z</time>
  <name>Escalier en grosses pierres</name>
  <type>GENERIC</type>
</wpt><wpt lat="43.699659" lon="5.082689">
  <ele>114</ele>
  <time>2025-04-29T16:39:22.000Z</time>
  <name>sentier éducatif</name>
  <type>GENERIC</type>
</wpt><wpt lat="43.691879" lon="5.068511">
  <ele>139</ele>
  <time>2025-04-29T17:13:46.000Z</time>
  <name>Prendre à droite</name>
  <type>GENERIC</type>
</wpt><wpt lat="43.69094" lon="5.048501">
  <ele>122</ele>
  <time>2025-04-29T17:46:36.000Z</time>
  <name>Poste eau taggué</name>
  <type>GENERIC</type>
</wpt><wpt lat="43.693772" lon="5.044532">
  <ele>119</ele>
  <time>2025-04-29T17:55:39.000Z</time>
  <name>chemin qui longe les propriétés</name>
  <type>GENERIC</type>
</wpt><wpt lat="43.695959" lon="5.036947">
  <ele>96</ele>
  <time>2025-04-29T18:09:55.000Z</time>
  <name>Arrivée</name>
  <type>GENERIC</type>
</wpt><trk>
  <name>Défens d'Eyguiéres - Lamanon les Grottes de Calés</name>
  <trkseg>
    <trkpt lat="43.696029" lon="5.036861">
      <ele>96</ele>
      <time>2025-04-29T13:11:31.000Z</time>
    </trkpt>
    <trkpt lat="43.696483" lon="5.038754">
      <ele>103</ele>
      <time>2025-04-29T13:15:28.000Z</time>
    </trkpt>
    <trkpt lat="43.696266" lon="5.039441">
      <ele>105</ele>
      <time>2025-04-29T13:16:51.000Z</time>
    </trkpt>
    <trkpt lat="43.69779" lon="5.03891">
      <ele>108</ele>
      <time>2025-04-29T13:20:22.000Z</time>
    </trkpt>
    <trkpt lat="43.69822" lon="5.038325">
      <ele>108</ele>
      <time>2025-04-29T13:21:31.000Z</time>
    </trkpt>
    <trkpt lat="43.699089" lon="5.038153">
      <ele>108</ele>
      <time>2025-04-29T13:23:12.000Z</time>
    </trkpt>
    <trkpt lat="43.699465" lon="5.038953">
      <ele>119</ele>
      <time>2025-04-29T13:26:24.000Z</time>
    </trkpt>
    <trkpt lat="43.699729" lon="5.040112">
      <ele>135</ele>
      <time>2025-04-29T13:30:49.000Z</time>
    </trkpt>
    <trkpt lat="43.700001" lon="5.041399">
      <ele>144</ele>
      <time>2025-04-29T13:34:13.000Z</time>
    </trkpt>
    <trkpt lat="43.700078" lon="5.042247">
      <ele>149</ele>
      <time>2025-04-29T13:36:15.000Z</time>
    </trkpt>
    <trkpt lat="43.700272" lon="5.042665">
      <ele>152</ele>
      <time>2025-04-29T13:37:27.000Z</time>
    </trkpt>
    <trkpt lat="43.700629" lon="5.042783">
      <ele>150</ele>
      <time>2025-04-29T13:38:09.000Z</time>
    </trkpt>
    <trkpt lat="43.70092" lon="5.04296">
      <ele>147</ele>
      <time>2025-04-29T13:38:45.000Z</time>
    </trkpt>
    <trkpt lat="43.701141" lon="5.042322">
      <ele>146</ele>
      <time>2025-04-29T13:39:44.000Z</time>
    </trkpt>
    <trkpt lat="43.701509" lon="5.042188">
      <ele>146</ele>
      <time>2025-04-29T13:40:28.000Z</time>
    </trkpt>
    <trkpt lat="43.701851" lon="5.04193">
      <ele>145</ele>
      <time>2025-04-29T13:41:13.000Z</time>
    </trkpt>
    <trkpt lat="43.702316" lon="5.042102">
      <ele>141</ele>
      <time>2025-04-29T13:42:08.000Z</time>
    </trkpt>
    <trkpt lat="43.702436" lon="5.041775">
      <ele>141</ele>
      <time>2025-04-29T13:42:38.000Z</time>
    </trkpt>
    <trkpt lat="43.702843" lon="5.041673">
      <ele>145</ele>
      <time>2025-04-29T13:44:06.000Z</time>
    </trkpt>
    <trkpt lat="43.703309" lon="5.04223">
      <ele>153</ele>
      <time>2025-04-29T13:46:39.000Z</time>
    </trkpt>
    <trkpt lat="43.703371" lon="5.043003">
      <ele>160</ele>
      <time>2025-04-29T13:48:55.000Z</time>
    </trkpt>
    <trkpt lat="43.703619" lon="5.043303">
      <ele>163</ele>
      <time>2025-04-29T13:50:04.000Z</time>
    </trkpt>
    <trkpt lat="43.703712" lon="5.043904">
      <ele>165</ele>
      <time>2025-04-29T13:51:15.000Z</time>
    </trkpt>
    <trkpt lat="43.704022" lon="5.043904">
      <ele>165</ele>
      <time>2025-04-29T13:51:50.000Z</time>
    </trkpt>
    <trkpt lat="43.704457" lon="5.044333">
      <ele>169</ele>
      <time>2025-04-29T13:53:32.000Z</time>
    </trkpt>
    <trkpt lat="43.704426" lon="5.044762">
      <ele>173</ele>
      <time>2025-04-29T13:54:49.000Z</time>
    </trkpt>
    <trkpt lat="43.704736" lon="5.045063">
      <ele>173</ele>
      <time>2025-04-29T13:55:32.000Z</time>
    </trkpt>
    <trkpt lat="43.705046" lon="5.045063">
      <ele>174</ele>
      <time>2025-04-29T13:56:18.000Z</time>
    </trkpt>
    <trkpt lat="43.705046" lon="5.045621">
      <ele>176</ele>
      <time>2025-04-29T13:57:25.000Z</time>
    </trkpt>
    <trkpt lat="43.704581" lon="5.046479">
      <ele>181</ele>
      <time>2025-04-29T13:59:45.000Z</time>
    </trkpt>
    <trkpt lat="43.704135" lon="5.04804">
      <ele>192</ele>
      <time>2025-04-29T14:03:57.000Z</time>
    </trkpt>
    <trkpt lat="43.704053" lon="5.048796">
      <ele>197</ele>
      <time>2025-04-29T14:05:52.000Z</time>
    </trkpt>
    <trkpt lat="43.704177" lon="5.050041">
      <ele>199</ele>
      <time>2025-04-29T14:07:57.000Z</time>
    </trkpt>
    <trkpt lat="43.704243" lon="5.050411">
      <ele>199</ele>
      <time>2025-04-29T14:08:29.000Z</time>
    </trkpt>
    <trkpt lat="43.704608" lon="5.05069">
      <ele>206</ele>
      <time>2025-04-29T14:10:29.000Z</time>
    </trkpt>
    <trkpt lat="43.704829" lon="5.051114">
      <ele>207</ele>
      <time>2025-04-29T14:11:23.000Z</time>
    </trkpt>
    <trkpt lat="43.704639" lon="5.051237">
      <ele>210</ele>
      <time>2025-04-29T14:12:18.000Z</time>
    </trkpt>
    <trkpt lat="43.70486" lon="5.051801">
      <ele>215</ele>
      <time>2025-04-29T14:14:03.000Z</time>
    </trkpt>
    <trkpt lat="43.704488" lon="5.051929">
      <ele>221</ele>
      <time>2025-04-29T14:15:49.000Z</time>
    </trkpt>
    <trkpt lat="43.704395" lon="5.052788">
      <ele>230</ele>
      <time>2025-04-29T14:18:33.000Z</time>
    </trkpt>
    <trkpt lat="43.703433" lon="5.053217">
      <ele>251</ele>
      <time>2025-04-29T14:24:05.000Z</time>
    </trkpt>
    <trkpt lat="43.702964" lon="5.054038">
      <ele>263</ele>
      <time>2025-04-29T14:27:35.000Z</time>
    </trkpt>
    <trkpt lat="43.702006" lon="5.05459">
      <ele>285</ele>
      <time>2025-04-29T14:33:20.000Z</time>
    </trkpt>
    <trkpt lat="43.702006" lon="5.05489">
      <ele>287</ele>
      <time>2025-04-29T14:34:05.000Z</time>
    </trkpt>
    <trkpt lat="43.701478" lon="5.05489">
      <ele>292</ele>
      <time>2025-04-29T14:35:57.000Z</time>
    </trkpt>
    <trkpt lat="43.701187" lon="5.055497">
      <ele>300</ele>
      <time>2025-04-29T14:38:20.000Z</time>
    </trkpt>
    <trkpt lat="43.699927" lon="5.056435">
      <ele>308</ele>
      <time>2025-04-29T14:42:26.000Z</time>
    </trkpt>
    <trkpt lat="43.700156" lon="5.057149">
      <ele>307</ele>
      <time>2025-04-29T14:43:31.000Z</time>
    </trkpt>
    <trkpt lat="43.699896" lon="5.057809">
      <ele>301</ele>
      <time>2025-04-29T14:44:33.000Z</time>
    </trkpt>
    <trkpt lat="43.700055" lon="5.058275">
      <ele>306</ele>
      <time>2025-04-29T14:46:07.000Z</time>
    </trkpt>
    <trkpt lat="43.699958" lon="5.05871">
      <ele>304</ele>
      <time>2025-04-29T14:46:45.000Z</time>
    </trkpt>
    <trkpt lat="43.699586" lon="5.059311">
      <ele>303</ele>
      <time>2025-04-29T14:47:50.000Z</time>
    </trkpt>
    <trkpt lat="43.699876" lon="5.061376">
      <ele>292</ele>
      <time>2025-04-29T14:50:44.000Z</time>
    </trkpt>
    <trkpt lat="43.6999" lon="5.062535">
      <ele>286</ele>
      <time>2025-04-29T14:52:20.000Z</time>
    </trkpt>
    <trkpt lat="43.699861" lon="5.064595">
      <ele>275</ele>
      <time>2025-04-29T14:55:11.000Z</time>
    </trkpt>
    <trkpt lat="43.699431" lon="5.066821">
      <ele>257</ele>
      <time>2025-04-29T14:58:22.000Z</time>
    </trkpt>
    <trkpt lat="43.699027" lon="5.067636">
      <ele>249</ele>
      <time>2025-04-29T14:59:44.000Z</time>
    </trkpt>
    <trkpt lat="43.699372" lon="5.068532">
      <ele>246</ele>
      <time>2025-04-29T15:01:08.000Z</time>
    </trkpt>
    <trkpt lat="43.699822" lon="5.069294">
      <ele>241</ele>
      <time>2025-04-29T15:02:29.000Z</time>
    </trkpt>
    <trkpt lat="43.700299" lon="5.070683">
      <ele>238</ele>
      <time>2025-04-29T15:04:36.000Z</time>
    </trkpt>
    <trkpt lat="43.700621" lon="5.071805">
      <ele>237</ele>
      <time>2025-04-29T15:06:16.000Z</time>
    </trkpt>
    <trkpt lat="43.703057" lon="5.0713">
      <ele>226</ele>
      <time>2025-04-29T15:10:58.000Z</time>
    </trkpt>
    <trkpt lat="43.703499" lon="5.071729">
      <ele>222</ele>
      <time>2025-04-29T15:12:00.000Z</time>
    </trkpt>
    <trkpt lat="43.703619" lon="5.072314">
      <ele>220</ele>
      <time>2025-04-29T15:12:50.000Z</time>
    </trkpt>
    <trkpt lat="43.702874" lon="5.073215">
      <ele>216</ele>
      <time>2025-04-29T15:14:43.000Z</time>
    </trkpt>
    <trkpt lat="43.701944" lon="5.073988">
      <ele>215</ele>
      <time>2025-04-29T15:16:47.000Z</time>
    </trkpt>
    <trkpt lat="43.701723" lon="5.07497">
      <ele>209</ele>
      <time>2025-04-29T15:18:12.000Z</time>
    </trkpt>
    <trkpt lat="43.702374" lon="5.076107">
      <ele>206</ele>
      <time>2025-04-29T15:20:12.000Z</time>
    </trkpt>
    <trkpt lat="43.703061" lon="5.077121">
      <ele>200</ele>
      <time>2025-04-29T15:22:07.000Z</time>
    </trkpt>
    <trkpt lat="43.703743" lon="5.077249">
      <ele>197</ele>
      <time>2025-04-29T15:23:26.000Z</time>
    </trkpt>
    <trkpt lat="43.703836" lon="5.078022">
      <ele>192</ele>
      <time>2025-04-29T15:24:31.000Z</time>
    </trkpt>
    <trkpt lat="43.70365" lon="5.078666">
      <ele>186</ele>
      <time>2025-04-29T15:25:28.000Z</time>
    </trkpt>
    <trkpt lat="43.703836" lon="5.079352">
      <ele>183</ele>
      <time>2025-04-29T15:26:29.000Z</time>
    </trkpt>
    <trkpt lat="43.704239" lon="5.080082">
      <ele>179</ele>
      <time>2025-04-29T15:27:45.000Z</time>
    </trkpt>
    <trkpt lat="43.704146" lon="5.080339">
      <ele>178</ele>
      <time>2025-04-29T15:28:09.000Z</time>
    </trkpt>
    <trkpt lat="43.704084" lon="5.080726">
      <ele>174</ele>
      <time>2025-04-29T15:28:42.000Z</time>
    </trkpt>
    <trkpt lat="43.704674" lon="5.081026">
      <ele>155</ele>
      <time>2025-04-29T15:29:54.000Z</time>
    </trkpt>
    <trkpt lat="43.705139" lon="5.080768">
      <ele>146</ele>
      <time>2025-04-29T15:30:51.000Z</time>
    </trkpt>
    <trkpt lat="43.705356" lon="5.081412">
      <ele>147</ele>
      <time>2025-04-29T15:32:00.000Z</time>
    </trkpt>
    <trkpt lat="43.704945" lon="5.08153">
      <ele>153</ele>
      <time>2025-04-29T15:33:50.000Z</time>
    </trkpt>
    <trkpt lat="43.704581" lon="5.081841">
      <ele>163</ele>
      <time>2025-04-29T15:36:22.000Z</time>
    </trkpt>
    <trkpt lat="43.703716" lon="5.082437">
      <ele>177</ele>
      <time>2025-04-29T15:40:37.000Z</time>
    </trkpt>
    <trkpt lat="43.70332" lon="5.082866">
      <ele>180</ele>
      <time>2025-04-29T15:42:05.000Z</time>
    </trkpt>
    <trkpt lat="43.703402" lon="5.083386">
      <ele>185</ele>
      <time>2025-04-29T15:43:40.000Z</time>
    </trkpt>
    <trkpt lat="43.703375" lon="5.083853">
      <ele>183</ele>
      <time>2025-04-29T15:44:19.000Z</time>
    </trkpt>
    <trkpt lat="43.70365" lon="5.084073">
      <ele>194</ele>
      <time>2025-04-29T15:46:49.000Z</time>
    </trkpt>
    <trkpt lat="43.703898" lon="5.083944">
      <ele>204</ele>
      <time>2025-04-29T15:49:02.000Z</time>
    </trkpt>
    <trkpt lat="43.704065" lon="5.084153">
      <ele>217</ele>
      <time>2025-04-29T15:51:42.000Z</time>
    </trkpt>
    <trkpt lat="43.704565" lon="5.084298">
      <ele>224</ele>
      <time>2025-04-29T15:53:52.000Z</time>
    </trkpt>
    <trkpt lat="43.704364" lon="5.084492">
      <ele>219</ele>
      <time>2025-04-29T15:54:20.000Z</time>
    </trkpt>
    <trkpt lat="43.704488" lon="5.084845">
      <ele>217</ele>
      <time>2025-04-29T15:54:52.000Z</time>
    </trkpt>
    <trkpt lat="43.704294" lon="5.085532">
      <ele>219</ele>
      <time>2025-04-29T15:56:14.000Z</time>
    </trkpt>
    <trkpt lat="43.704836" lon="5.08624">
      <ele>215</ele>
      <time>2025-04-29T15:57:39.000Z</time>
    </trkpt>
    <trkpt lat="43.705116" lon="5.085951">
      <ele>219</ele>
      <time>2025-04-29T15:59:00.000Z</time>
    </trkpt>
    <trkpt lat="43.705822" lon="5.086026">
      <ele>214</ele>
      <time>2025-04-29T16:00:21.000Z</time>
    </trkpt>
    <trkpt lat="43.705597" lon="5.085618">
      <ele>214</ele>
      <time>2025-04-29T16:01:03.000Z</time>
    </trkpt>
    <trkpt lat="43.705554" lon="5.085414">
      <ele>215</ele>
      <time>2025-04-29T16:01:31.000Z</time>
    </trkpt>
    <trkpt lat="43.705255" lon="5.085264">
      <ele>219</ele>
      <time>2025-04-29T16:02:49.000Z</time>
    </trkpt>
    <trkpt lat="43.704829" lon="5.085275">
      <ele>218</ele>
      <time>2025-04-29T16:03:38.000Z</time>
    </trkpt>
    <trkpt lat="43.704689" lon="5.084877">
      <ele>217</ele>
      <time>2025-04-29T16:04:15.000Z</time>
    </trkpt>
    <trkpt lat="43.704837" lon="5.084352">
      <ele>209</ele>
      <time>2025-04-29T16:05:02.000Z</time>
    </trkpt>
    <trkpt lat="43.705139" lon="5.084695">
      <ele>205</ele>
      <time>2025-04-29T16:05:47.000Z</time>
    </trkpt>
    <trkpt lat="43.70507" lon="5.08387">
      <ele>193</ele>
      <time>2025-04-29T16:06:56.000Z</time>
    </trkpt>
    <trkpt lat="43.705209" lon="5.083301">
      <ele>190</ele>
      <time>2025-04-29T16:07:46.000Z</time>
    </trkpt>
    <trkpt lat="43.705371" lon="5.083944">
      <ele>184</ele>
      <time>2025-04-29T16:08:42.000Z</time>
    </trkpt>
    <trkpt lat="43.705861" lon="5.084491">
      <ele>177</ele>
      <time>2025-04-29T16:09:54.000Z</time>
    </trkpt>
    <trkpt lat="43.706505" lon="5.084824">
      <ele>167</ele>
      <time>2025-04-29T16:11:13.000Z</time>
    </trkpt>
    <trkpt lat="43.706698" lon="5.084663">
      <ele>163</ele>
      <time>2025-04-29T16:11:39.000Z</time>
    </trkpt>
    <trkpt lat="43.706853" lon="5.084641">
      <ele>160</ele>
      <time>2025-04-29T16:11:57.000Z</time>
    </trkpt>
    <trkpt lat="43.706784" lon="5.084191">
      <ele>152</ele>
      <time>2025-04-29T16:12:35.000Z</time>
    </trkpt>
    <trkpt lat="43.706248" lon="5.082088">
      <ele>150</ele>
      <time>2025-04-29T16:15:40.000Z</time>
    </trkpt>
    <trkpt lat="43.706148" lon="5.081799">
      <ele>147</ele>
      <time>2025-04-29T16:16:07.000Z</time>
    </trkpt>
    <trkpt lat="43.705659" lon="5.081573">
      <ele>146</ele>
      <time>2025-04-29T16:17:06.000Z</time>
    </trkpt>
    <trkpt lat="43.704848" lon="5.081664">
      <ele>158</ele>
      <time>2025-04-29T16:20:43.000Z</time>
    </trkpt>
    <trkpt lat="43.703426" lon="5.082496">
      <ele>179</ele>
      <time>2025-04-29T16:27:16.000Z</time>
    </trkpt>
    <trkpt lat="43.703177" lon="5.082421">
      <ele>175</ele>
      <time>2025-04-29T16:27:45.000Z</time>
    </trkpt>
    <trkpt lat="43.703076" lon="5.082142">
      <ele>169</ele>
      <time>2025-04-29T16:28:11.000Z</time>
    </trkpt>
    <trkpt lat="43.702754" lon="5.082673">
      <ele>161</ele>
      <time>2025-04-29T16:29:08.000Z</time>
    </trkpt>
    <trkpt lat="43.70265" lon="5.083418">
      <ele>155</ele>
      <time>2025-04-29T16:30:11.000Z</time>
    </trkpt>
    <trkpt lat="43.70256" lon="5.084025">
      <ele>143</ele>
      <time>2025-04-29T16:31:02.000Z</time>
    </trkpt>
    <trkpt lat="43.702308" lon="5.084374">
      <ele>137</ele>
      <time>2025-04-29T16:31:43.000Z</time>
    </trkpt>
    <trkpt lat="43.701963" lon="5.08396">
      <ele>130</ele>
      <time>2025-04-29T16:32:35.000Z</time>
    </trkpt>
    <trkpt lat="43.701711" lon="5.08388">
      <ele>126</ele>
      <time>2025-04-29T16:33:05.000Z</time>
    </trkpt>
    <trkpt lat="43.701811" lon="5.084362">
      <ele>128</ele>
      <time>2025-04-29T16:34:07.000Z</time>
    </trkpt>
    <trkpt lat="43.701176" lon="5.08462">
      <ele>115</ele>
      <time>2025-04-29T16:35:23.000Z</time>
    </trkpt>
    <trkpt lat="43.700829" lon="5.083923">
      <ele>114</ele>
      <time>2025-04-29T16:36:33.000Z</time>
    </trkpt>
    <trkpt lat="43.700422" lon="5.083467">
      <ele>114</ele>
      <time>2025-04-29T16:37:33.000Z</time>
    </trkpt>
    <trkpt lat="43.699659" lon="5.082689">
      <ele>114</ele>
      <time>2025-04-29T16:39:22.000Z</time>
    </trkpt>
    <trkpt lat="43.699516" lon="5.082324">
      <ele>116</ele>
      <time>2025-04-29T16:40:17.000Z</time>
    </trkpt>
    <trkpt lat="43.699694" lon="5.081916">
      <ele>118</ele>
      <time>2025-04-29T16:41:17.000Z</time>
    </trkpt>
    <trkpt lat="43.700113" lon="5.081112">
      <ele>127</ele>
      <time>2025-04-29T16:44:12.000Z</time>
    </trkpt>
    <trkpt lat="43.698779" lon="5.079524">
      <ele>135</ele>
      <time>2025-04-29T16:48:56.000Z</time>
    </trkpt>
    <trkpt lat="43.697945" lon="5.078982">
      <ele>140</ele>
      <time>2025-04-29T16:51:33.000Z</time>
    </trkpt>
    <trkpt lat="43.697922" lon="5.078338">
      <ele>145</ele>
      <time>2025-04-29T16:53:18.000Z</time>
    </trkpt>
    <trkpt lat="43.696696" lon="5.077823">
      <ele>141</ele>
      <time>2025-04-29T16:55:45.000Z</time>
    </trkpt>
    <trkpt lat="43.696142" lon="5.076906">
      <ele>143</ele>
      <time>2025-04-29T16:57:44.000Z</time>
    </trkpt>
    <trkpt lat="43.695614" lon="5.076606">
      <ele>141</ele>
      <time>2025-04-29T16:58:49.000Z</time>
    </trkpt>
    <trkpt lat="43.695121" lon="5.075849">
      <ele>142</ele>
      <time>2025-04-29T17:00:24.000Z</time>
    </trkpt>
    <trkpt lat="43.694291" lon="5.07512">
      <ele>136</ele>
      <time>2025-04-29T17:02:17.000Z</time>
    </trkpt>
    <trkpt lat="43.693849" lon="5.0738">
      <ele>137</ele>
      <time>2025-04-29T17:04:28.000Z</time>
    </trkpt>
    <trkpt lat="43.693349" lon="5.0727">
      <ele>135</ele>
      <time>2025-04-29T17:06:16.000Z</time>
    </trkpt>
    <trkpt lat="43.692728" lon="5.070254">
      <ele>141</ele>
      <time>2025-04-29T17:10:52.000Z</time>
    </trkpt>
    <trkpt lat="43.691879" lon="5.068511">
      <ele>139</ele>
      <time>2025-04-29T17:13:46.000Z</time>
    </trkpt>
    <trkpt lat="43.692895" lon="5.067953">
      <ele>146</ele>
      <time>2025-04-29T17:17:03.000Z</time>
    </trkpt>
    <trkpt lat="43.692189" lon="5.064015">
      <ele>151</ele>
      <time>2025-04-29T17:23:30.000Z</time>
    </trkpt>
    <trkpt lat="43.691763" lon="5.061301">
      <ele>152</ele>
      <time>2025-04-29T17:27:30.000Z</time>
    </trkpt>
    <trkpt lat="43.691538" lon="5.059499">
      <ele>151</ele>
      <time>2025-04-29T17:30:01.000Z</time>
    </trkpt>
    <trkpt lat="43.691425" lon="5.057637">
      <ele>152</ele>
      <time>2025-04-29T17:32:46.000Z</time>
    </trkpt>
    <trkpt lat="43.690618" lon="5.054633">
      <ele>144</ele>
      <time>2025-04-29T17:37:11.000Z</time>
    </trkpt>
    <trkpt lat="43.690339" lon="5.054161">
      <ele>141</ele>
      <time>2025-04-29T17:38:01.000Z</time>
    </trkpt>
    <trkpt lat="43.690226" lon="5.053458">
      <ele>139</ele>
      <time>2025-04-29T17:39:01.000Z</time>
    </trkpt>
    <trkpt lat="43.690246" lon="5.05223">
      <ele>136</ele>
      <time>2025-04-29T17:40:43.000Z</time>
    </trkpt>
    <trkpt lat="43.690133" lon="5.051581">
      <ele>133</ele>
      <time>2025-04-29T17:41:38.000Z</time>
    </trkpt>
    <trkpt lat="43.690215" lon="5.050513">
      <ele>127</ele>
      <time>2025-04-29T17:43:07.000Z</time>
    </trkpt>
    <trkpt lat="43.690521" lon="5.049306">
      <ele>120</ele>
      <time>2025-04-29T17:44:53.000Z</time>
    </trkpt>
    <trkpt lat="43.69094" lon="5.048501">
      <ele>122</ele>
      <time>2025-04-29T17:46:36.000Z</time>
    </trkpt>
    <trkpt lat="43.69108" lon="5.048727">
      <ele>127</ele>
      <time>2025-04-29T17:47:52.000Z</time>
    </trkpt>
    <trkpt lat="43.691995" lon="5.047053">
      <ele>127</ele>
      <time>2025-04-29T17:50:46.000Z</time>
    </trkpt>
    <trkpt lat="43.693136" lon="5.045637">
      <ele>125</ele>
      <time>2025-04-29T17:53:42.000Z</time>
    </trkpt>
    <trkpt lat="43.693772" lon="5.044532">
      <ele>119</ele>
      <time>2025-04-29T17:55:39.000Z</time>
    </trkpt>
    <trkpt lat="43.694305" lon="5.043719">
      <ele>117</ele>
      <time>2025-04-29T17:57:10.000Z</time>
    </trkpt>
    <trkpt lat="43.694646" lon="5.04299">
      <ele>117</ele>
      <time>2025-04-29T17:58:22.000Z</time>
    </trkpt>
    <trkpt lat="43.694987" lon="5.042099">
      <ele>111</ele>
      <time>2025-04-29T17:59:45.000Z</time>
    </trkpt>
    <trkpt lat="43.695336" lon="5.041348">
      <ele>106</ele>
      <time>2025-04-29T18:00:59.000Z</time>
    </trkpt>
    <trkpt lat="43.695831" lon="5.040685">
      <ele>109</ele>
      <time>2025-04-29T18:02:49.000Z</time>
    </trkpt>
    <trkpt lat="43.696254" lon="5.040251">
      <ele>110</ele>
      <time>2025-04-29T18:04:00.000Z</time>
    </trkpt>
    <trkpt lat="43.696483" lon="5.039656">
      <ele>107</ele>
      <time>2025-04-29T18:04:56.000Z</time>
    </trkpt>
    <trkpt lat="43.696483" lon="5.039312">
      <ele>106</ele>
      <time>2025-04-29T18:05:24.000Z</time>
    </trkpt>
    <trkpt lat="43.696142" lon="5.039527">
      <ele>105</ele>
      <time>2025-04-29T18:06:07.000Z</time>
    </trkpt>
    <trkpt lat="43.696401" lon="5.038728">
      <ele>103</ele>
      <time>2025-04-29T18:07:19.000Z</time>
    </trkpt>
    <trkpt lat="43.695959" lon="5.036947">
      <ele>96</ele>
      <time>2025-04-29T18:09:55.000Z</time>
    </trkpt>
  </trkseg>
</trk></gpx>